Time;durP1;ratioP1;P1;durP2;ratioP2;P2;SDS_P1;SDS_P2;PMS_P1;PMS_P2;Temp;Humidity;BMP_temperature;BMP_pressure;BME280_temperature;BME280_humidity;BME280_pressure;Samples;Min_cycle;Max_cycle;Signal;HPM_P1;HPM_P2
2021/05/04 00:02:02;;;;;;;15.55;7.40;;;4.50;99.90;;;;;;5012745;28;20037;-71
2021/05/04 00:04:27;;;;;;;10.15;7.40;;;4.40;99.90;;;;;;5011868;28;20030;-71
2021/05/04 00:06:53;;;;;;;9.02;6.93;;;4.40;99.90;;;;;;5012354;28;20026;-71
2021/05/04 00:09:19;;;;;;;8.70;7.65;;;4.40;99.90;;;;;;5012572;28;20093;-72
2021/05/04 00:11:45;;;;;;;10.13;7.43;;;4.40;99.90;;;;;;5012026;28;20029;-72
2021/05/04 00:14:11;;;;;;;11.85;8.38;;;4.40;99.90;;;;;;5011788;28;20022;-70
2021/05/04 00:16:36;;;;;;;9.13;7.32;;;4.40;99.90;;;;;;5012278;28;20104;-72
2021/05/04 00:19:03;;;;;;;7.95;7.13;;;4.30;99.90;;;;;;5012638;28;20038;-72
2021/05/04 00:21:28;;;;;;;8.80;7.75;;;4.30;99.90;;;;;;5012347;28;20391;-72
2021/05/04 00:23:54;;;;;;;9.18;7.50;;;4.30;99.90;;;;;;5010786;28;20030;-72
2021/05/04 00:26:20;;;;;;;9.48;7.57;;;4.40;99.90;;;;;;5012329;28;20028;-72
2021/05/04 00:28:45;;;;;;;9.40;7.78;;;4.20;99.90;;;;;;5012188;28;20022;-72
2021/05/04 00:31:11;;;;;;;10.30;7.57;;;4.20;99.90;;;;;;5012274;28;20034;-72
2021/05/04 00:33:37;;;;;;;12.82;7.97;;;4.30;99.90;;;;;;5011418;28;20065;-72
2021/05/04 00:36:03;;;;;;;9.48;8.10;;;4.30;99.90;;;;;;5012154;28;20026;-72
2021/05/04 00:38:29;;;;;;;10.45;7.55;;;4.20;99.90;;;;;;5011987;28;20021;-71
2021/05/04 00:40:54;;;;;;;13.30;7.75;;;4.30;99.90;;;;;;5012026;28;20026;-72
2021/05/04 00:43:31;;;;;;;8.75;7.85;;;4.20;99.90;;;;;;5011332;28;20373;-72
2021/05/04 00:45:57;;;;;;;8.73;7.25;;;4.20;99.90;;;;;;5010945;28;20076;-71
2021/05/04 00:48:23;;;;;;;11.38;7.55;;;4.20;99.90;;;;;;4994433;28;20030;-71
2021/05/04 00:50:49;;;;;;;9.10;7.60;;;4.20;99.90;;;;;;5011499;28;20361;-71
2021/05/04 00:53:15;;;;;;;13.55;8.13;;;4.20;99.90;;;;;;5010325;28;20514;-72
2021/05/04 00:55:42;;;;;;;12.07;7.72;;;4.20;99.90;;;;;;5011571;28;20045;-72
2021/05/04 00:58:09;;;;;;;8.15;7.35;;;4.30;99.90;;;;;;5011744;28;20029;-72
2021/05/04 01:00:34;;;;;;;8.60;7.70;;;4.20;99.90;;;;;;5011895;28;20148;-71
2021/05/04 01:03:01;;;;;;;9.52;8.20;;;4.20;99.90;;;;;;5010991;28;20109;-72
2021/05/04 01:05:27;;;;;;;8.77;7.75;;;4.20;99.90;;;;;;4994114;28;20435;-72
2021/05/04 01:07:52;;;;;;;10.77;7.72;;;4.20;99.90;;;;;;5012130;28;20155;-73
2021/05/04 01:10:18;;;;;;;9.50;8.00;;;4.20;99.90;;;;;;5011523;28;20460;-71
2021/05/04 01:12:44;;;;;;;9.95;8.23;;;4.20;99.90;;;;;;5010909;28;20392;-72
2021/05/04 01:15:10;;;;;;;12.02;8.40;;;4.10;99.90;;;;;;5011374;28;20391;-72
2021/05/04 01:17:36;;;;;;;11.95;8.98;;;4.10;99.90;;;;;;4994013;28;20026;-72
2021/05/04 01:20:03;;;;;;;10.95;8.60;;;4.10;99.90;;;;;;5010812;28;20118;-71
2021/05/04 01:22:28;;;;;;;12.10;7.97;;;4.20;99.90;;;;;;5011650;28;20040;-71
2021/05/04 01:24:54;;;;;;;12.88;9.00;;;4.10;99.90;;;;;;5010833;28;20424;-72
2021/05/04 01:27:20;;;;;;;9.90;8.23;;;4.20;99.90;;;;;;5011574;28;20034;-71
2021/05/04 01:29:45;;;;;;;12.55;8.55;;;4.10;99.90;;;;;;5011503;28;20029;-72
2021/05/04 01:32:13;;;;;;;10.23;7.80;;;4.20;99.90;;;;;;4993311;28;20038;-72
2021/05/04 01:34:39;;;;;;;10.65;8.55;;;4.10;99.90;;;;;;5013336;28;20096;-71
2021/05/04 01:37:05;;;;;;;11.48;8.77;;;4.10;99.90;;;;;;5011392;28;20480;-71
2021/05/04 01:39:47;;;;;;;11.25;8.68;;;4.20;99.90;;;;;;5011574;28;20033;-71
2021/05/04 01:42:14;;;;;;;10.20;8.48;;;4.20;99.90;;;;;;5011503;28;20084;-71
2021/05/04 01:44:41;;;;;;;11.30;8.45;;;4.10;99.90;;;;;;5010521;28;20372;-72
2021/05/04 01:47:07;;;;;;;13.13;7.88;;;4.10;99.90;;;;;;5011107;28;20030;-72
2021/05/04 01:49:33;;;;;;;10.30;8.80;;;4.10;99.90;;;;;;5011494;28;20029;-73
2021/05/04 01:52:02;;;;;;;10.48;8.60;;;4.00;99.90;;;;;;5011335;28;20030;-73
2021/05/04 01:54:28;;;;;;;10.00;8.23;;;4.20;99.90;;;;;;5009840;28;20132;-71
2021/05/04 01:56:57;;;;;;;11.35;8.00;;;4.10;99.90;;;;;;5011223;28;20093;-72
2021/05/04 01:59:24;;;;;;;11.93;8.73;;;4.10;99.90;;;;;;5009910;28;20030;-72
2021/05/04 02:01:50;;;;;;;9.85;8.40;;;4.10;99.90;;;;;;5011001;28;20022;-71
2021/05/04 02:04:16;;;;;;;9.88;8.75;;;4.10;99.90;;;;;;5012643;28;20026;-71
2021/05/04 02:06:42;;;;;;;10.50;8.70;;;4.10;99.90;;;;;;5014835;28;20061;-71
2021/05/04 02:09:09;;;;;;;11.25;8.52;;;4.20;99.90;;;;;;5014998;28;20121;-72
2021/05/04 02:11:35;;;;;;;10.77;8.73;;;4.20;99.90;;;;;;5014982;28;20177;-72
2021/05/04 02:14:01;;;;;;;9.02;8.10;;;4.20;99.90;;;;;;5013703;28;20018;-72
2021/05/04 02:16:27;;;;;;;9.02;8.13;;;4.20;99.90;;;;;;5014266;28;20087;-72
2021/05/04 02:18:54;;;;;;;8.65;7.75;;;4.10;99.90;;;;;;5015449;28;20024;-71
2021/05/04 02:21:20;;;;;;;8.52;7.63;;;4.10;99.90;;;;;;5014669;28;20428;-72
2021/05/04 02:23:47;;;;;;;9.88;7.70;;;4.00;99.90;;;;;;5014028;28;20030;-72
2021/05/04 02:26:13;;;;;;;10.90;7.47;;;4.00;99.90;;;;;;5014806;28;20072;-72
2021/05/04 02:28:39;;;;;;;8.32;7.45;;;4.00;99.90;;;;;;4998214;28;20026;-72
2021/05/04 02:31:07;;;;;;;11.38;8.45;;;4.00;99.90;;;;;;5015580;28;20080;-72
2021/05/04 02:33:34;;;;;;;9.93;8.13;;;3.90;99.90;;;;;;5014116;28;20029;-72
2021/05/04 02:35:59;;;;;;;11.52;8.25;;;4.00;99.90;;;;;;5014572;28;20026;-71
2021/05/04 02:38:25;;;;;;;11.68;8.75;;;3.90;99.90;;;;;;5014478;28;20440;-71
2021/05/04 02:40:51;;;;;;;13.45;9.52;;;4.00;99.90;;;;;;5014077;28;20037;-71
2021/05/04 02:43:16;;;;;;;11.73;9.35;;;4.00;99.90;;;;;;5013587;28;20025;-71
2021/05/04 02:45:42;;;;;;;10.80;9.18;;;3.90;99.90;;;;;;5013304;28;20087;-71
2021/05/04 02:48:08;;;;;;;11.57;8.93;;;3.90;99.90;;;;;;5014335;28;20034;-70
2021/05/04 02:50:33;;;;;;;13.60;8.85;;;4.00;99.90;;;;;;4995691;28;20392;-72
2021/05/04 02:52:59;;;;;;;14.00;9.15;;;4.00;99.90;;;;;;5013110;28;20089;-71
2021/05/04 02:55:25;;;;;;;12.52;8.90;;;4.00;99.90;;;;;;5058764;22;20099;-74
2021/05/04 02:57:51;;;;;;;12.45;9.55;;;4.20;99.90;;;;;;5034157;28;20014;-74
2021/05/04 03:00:19;;;;;;;15.80;10.10;;;4.20;99.90;;;;;;5016531;28;20363;-75
2021/05/04 03:02:45;;;;;;;12.30;8.85;;;4.20;99.90;;;;;;5013344;28;20060;-75
2021/05/04 03:05:11;;;;;;;8.45;7.55;;;4.10;99.90;;;;;;5014093;28;20050;-74
2021/05/04 03:07:37;;;;;;;9.80;8.48;;;4.20;99.90;;;;;;5014109;28;20115;-74
2021/05/04 03:10:04;;;;;;;10.20;9.18;;;4.20;99.90;;;;;;5013224;28;20088;-74
2021/05/04 03:12:29;;;;;;;11.00;8.77;;;4.30;99.90;;;;;;5013847;28;20526;-74
2021/05/04 03:14:55;;;;;;;10.23;8.00;;;4.30;99.90;;;;;;5012281;28;20038;-75
2021/05/04 03:17:20;;;;;;;11.15;8.55;;;4.40;99.90;;;;;;5013720;28;20137;-74
2021/05/04 03:19:46;;;;;;;9.65;8.20;;;4.30;99.90;;;;;;5013155;28;20026;-74
2021/05/04 03:22:12;;;;;;;9.93;7.78;;;4.40;99.90;;;;;;4995906;28;20053;-74
2021/05/04 03:24:37;;;;;;;9.02;7.38;;;4.40;99.90;;;;;;5011960;28;20022;-74
2021/05/04 03:27:03;;;;;;;12.60;8.98;;;4.40;99.90;;;;;;5013443;28;20018;-74
2021/05/04 03:29:29;;;;;;;8.85;7.85;;;4.40;99.90;;;;;;5013366;28;20022;-74
2021/05/04 03:31:54;;;;;;;9.13;7.00;;;4.40;99.90;;;;;;5013433;28;20045;-74
2021/05/04 03:34:20;;;;;;;8.77;7.05;;;4.30;99.90;;;;;;5012301;28;20025;-74
2021/05/04 03:36:46;;;;;;;10.25;7.65;;;4.30;99.90;;;;;;5013023;28;20030;-74
2021/05/04 03:39:11;;;;;;;10.30;7.22;;;4.30;99.90;;;;;;5013234;28;20026;-74
2021/05/04 03:41:37;;;;;;;7.68;6.88;;;4.40;99.90;;;;;;5013116;28;20018;-74
2021/05/04 03:44:03;;;;;;;8.32;6.65;;;4.30;99.90;;;;;;5012795;28;20499;-74
2021/05/04 03:46:29;;;;;;;8.77;6.65;;;4.30;99.90;;;;;;4995296;28;20041;-74
2021/05/04 03:48:54;;;;;;;8.93;7.35;;;4.30;99.90;;;;;;5013219;28;20038;-74
2021/05/04 03:51:20;;;;;;;8.85;6.82;;;4.30;99.90;;;;;;5013261;28;20463;-74
2021/05/04 03:53:46;;;;;;;7.68;6.50;;;4.40;99.90;;;;;;5012479;28;20032;-74
2021/05/04 03:56:11;;;;;;;8.43;6.35;;;4.40;99.90;;;;;;5013748;28;20113;-74
2021/05/04 03:58:37;;;;;;;9.77;6.78;;;4.50;99.90;;;;;;5014406;28;20014;-74
2021/05/04 04:01:03;;;;;;;8.35;6.53;;;4.50;99.90;;;;;;5013525;28;20516;-74
2021/05/04 04:03:28;;;;;;;8.27;7.32;;;4.50;99.90;;;;;;5012556;28;20021;-74
2021/05/04 04:05:55;;;;;;;9.93;6.35;;;4.60;99.90;;;;;;5012649;28;20480;-73
2021/05/04 04:08:21;;;;;;;6.88;5.80;;;4.60;99.90;;;;;;5014800;28;20095;-76
2021/05/04 04:10:47;;;;;;;11.30;6.22;;;4.60;99.90;;;;;;5032907;28;20033;-75
2021/05/04 04:13:13;;;;;;;6.95;6.25;;;4.60;99.90;;;;;;5032787;28;20049;-75
2021/05/04 04:15:39;;;;;;;7.28;6.20;;;4.60;99.90;;;;;;5024794;28;20136;-74
2021/05/04 04:18:05;;;;;;;6.78;5.57;;;4.70;99.90;;;;;;5030486;28;20063;-73
2021/05/04 04:20:31;;;;;;;6.38;5.63;;;4.70;99.90;;;;;;5034459;28;20033;-73
2021/05/04 04:22:57;;;;;;;7.20;6.50;;;4.70;99.90;;;;;;5018149;28;20037;-75
2021/05/04 04:25:22;;;;;;;9.65;6.85;;;4.80;99.90;;;;;;5024519;28;20025;-74
2021/05/04 04:27:48;;;;;;;7.20;6.00;;;4.90;99.90;;;;;;5033909;28;20025;-75
2021/05/04 04:30:15;;;;;;;10.52;7.20;;;4.90;99.90;;;;;;5034586;28;20099;-75
2021/05/04 04:32:43;;;;;;;8.82;5.50;;;4.80;99.90;;;;;;5029110;28;20042;-75
2021/05/04 04:35:09;;;;;;;9.70;5.88;;;4.90;99.90;;;;;;5012980;28;20026;-73
2021/05/04 04:37:35;;;;;;;7.95;6.03;;;5.00;99.90;;;;;;5025482;28;20083;-73
2021/05/04 04:40:01;;;;;;;10.70;5.97;;;5.00;99.90;;;;;;5013467;28;20026;-74
2021/05/04 04:42:27;;;;;;;5.90;5.30;;;4.90;99.90;;;;;;5030558;28;20484;-73
2021/05/04 04:44:53;;;;;;;8.02;6.10;;;5.00;99.90;;;;;;5029610;28;20087;-72
2021/05/04 04:47:18;;;;;;;7.53;4.95;;;5.10;99.90;;;;;;5018568;28;20472;-71
2021/05/04 04:49:44;;;;;;;6.65;5.43;;;5.20;99.90;;;;;;5009611;28;20053;-72
2021/05/04 04:52:09;;;;;;;5.47;4.97;;;5.20;99.90;;;;;;4993381;28;20033;-72
2021/05/04 04:54:36;;;;;;;9.13;5.40;;;5.20;99.90;;;;;;4992916;28;20033;-74
2021/05/04 04:57:02;;;;;;;6.38;5.75;;;5.20;99.90;;;;;;5011988;28;20072;-75
2021/05/04 04:59:28;;;;;;;8.80;5.53;;;5.40;99.90;;;;;;4993904;28;20072;-74
2021/05/04 05:01:54;;;;;;;7.35;5.35;;;5.40;99.90;;;;;;5010899;28;20022;-74
2021/05/04 05:04:20;;;;;;;8.82;5.63;;;5.70;99.90;;;;;;5010403;28;20030;-74
2021/05/04 05:06:45;;;;;;;5.43;4.93;;;6.50;99.90;;;;;;5010836;28;20034;-74
2021/05/04 05:09:11;;;;;;;6.03;5.43;;;6.70;99.90;;;;;;5014626;28;20022;-74
2021/05/04 05:11:37;;;;;;;5.05;3.70;;;7.20;99.90;;;;;;5030800;28;20030;-74
2021/05/04 05:14:04;;;;;;;5.00;3.55;;;7.80;99.90;;;;;;5033837;28;20057;-72
2021/05/04 05:16:32;;;;;;;6.03;3.47;;;7.80;99.90;;;;;;5033030;28;20029;-72
2021/05/04 05:18:58;;;;;;;3.97;3.22;;;7.70;99.90;;;;;;5013878;28;20026;-73
2021/05/04 05:21:24;;;;;;;5.07;3.00;;;7.80;99.90;;;;;;5014339;28;20030;-72
2021/05/04 05:23:51;;;;;;;5.55;2.97;;;7.80;99.90;;;;;;5012111;28;20125;-74
2021/05/04 05:26:17;;;;;;;10.85;3.10;;;8.00;99.90;;;;;;5012432;28;20033;-72
2021/05/04 05:28:43;;;;;;;4.07;2.47;;;8.20;99.90;;;;;;5010914;28;20030;-73
2021/05/04 05:31:09;;;;;;;3.85;2.67;;;8.60;99.90;;;;;;4994256;28;20029;-73
2021/05/04 05:33:35;;;;;;;2.80;2.53;;;8.80;99.90;;;;;;5011965;28;20033;-73
2021/05/04 05:36:02;;;;;;;2.83;2.60;;;8.90;99.90;;;;;;4997555;28;20076;-74
2021/05/04 05:38:29;;;;;;;2.78;2.50;;;9.00;99.90;;;;;;5012324;28;20121;-76
2021/05/04 05:40:55;;;;;;;5.32;2.35;;;9.30;99.90;;;;;;5001883;28;20041;-72
2021/05/04 05:43:22;;;;;;;2.47;2.28;;;9.50;99.90;;;;;;5000268;28;20028;-72
2021/05/04 05:45:48;;;;;;;2.95;2.50;;;9.60;99.90;;;;;;5028162;28;20033;-73
2021/05/04 05:48:13;;;;;;;2.97;2.40;;;9.70;99.90;;;;;;5002177;28;20033;-73
2021/05/04 05:50:39;;;;;;;2.53;2.20;;;9.80;99.90;;;;;;5014517;28;20113;-73
2021/05/04 05:53:05;;;;;;;4.63;2.85;;;10.00;99.90;;;;;;4996801;28;20088;-73
2021/05/04 05:55:31;;;;;;;4.10;2.67;;;10.10;99.90;;;;;;5013743;28;20029;-74
2021/05/04 05:57:57;;;;;;;5.00;2.90;;;10.20;99.90;;;;;;5014183;28;20018;-72
2021/05/04 06:00:23;;;;;;;7.15;3.10;;;10.30;99.90;;;;;;5014811;28;20026;-72
2021/05/04 06:02:50;;;;;;;3.72;2.90;;;10.20;99.90;;;;;;4998580;28;20110;-74
2021/05/04 06:05:16;;;;;;;3.28;3.00;;;10.30;99.90;;;;;;5030345;28;20037;-72
2021/05/04 06:07:42;;;;;;;2.72;2.40;;;10.30;99.90;;;;;;4998777;28;20018;-71
2021/05/04 06:10:08;;;;;;;2.70;2.38;;;10.40;99.90;;;;;;5021592;28;20028;-72
2021/05/04 06:12:34;;;;;;;2.60;2.40;;;10.60;99.90;;;;;;5035215;28;20025;-72
2021/05/04 06:15:00;;;;;;;2.55;2.35;;;10.70;99.90;;;;;;5016509;28;20461;-73
2021/05/04 06:17:26;;;;;;;4.95;2.70;;;10.80;99.90;;;;;;5030732;28;20526;-73
2021/05/04 06:19:52;;;;;;;4.25;2.40;;;10.90;99.90;;;;;;5033372;28;20037;-73
2021/05/04 06:22:18;;;;;;;2.65;2.10;;;11.10;99.90;;;;;;5016081;28;20112;-71
2021/05/04 06:24:44;;;;;;;4.07;2.20;;;11.20;99.90;;;;;;5034974;28;20041;-75
2021/05/04 06:27:09;;;;;;;2.63;2.42;;;11.30;99.90;;;;;;5034485;28;20029;-75
2021/05/04 06:29:35;;;;;;;2.63;2.28;;;11.50;99.90;;;;;;5015758;28;20027;-73
2021/05/04 06:32:11;;;;;;;4.75;2.30;;;11.70;99.90;;;;;;5016246;28;20021;-74
2021/05/04 06:34:37;;;;;;;2.58;1.88;;;11.80;99.90;;;;;;5016848;28;20029;-74
2021/05/04 06:37:03;;;;;;;4.97;1.80;;;12.10;99.50;;;;;;5025591;28;20009;-72
2021/05/04 06:39:29;;;;;;;5.70;1.92;;;12.20;99.00;;;;;;5034703;28;20036;-75
2021/05/04 06:41:55;;;;;;;2.38;2.00;;;12.30;99.00;;;;;;5017196;28;20034;-73
2021/05/04 06:44:21;;;;;;;2.28;2.03;;;12.40;99.20;;;;;;5016151;28;20399;-73
2021/05/04 06:46:47;;;;;;;2.17;2.00;;;12.50;98.00;;;;;;5016914;28;20036;-72
2021/05/04 06:49:13;;;;;;;6.75;1.65;;;12.50;97.70;;;;;;5034505;28;20033;-74
2021/05/04 06:51:39;;;;;;;2.45;2.00;;;12.60;96.80;;;;;;5033652;28;20395;-74
2021/05/04 06:54:05;;;;;;;4.43;1.80;;;12.60;97.10;;;;;;5033839;28;20018;-70
2021/05/04 06:56:31;;;;;;;2.00;1.88;;;12.70;96.70;;;;;;5033403;28;20472;-72
2021/05/04 06:58:56;;;;;;;2.35;2.05;;;12.80;95.80;;;;;;5033420;28;20503;-73
2021/05/04 07:01:22;;;;;;;1.60;1.35;;;12.90;95.60;;;;;;5033591;28;20033;-73
2021/05/04 07:03:48;;;;;;;2.05;1.90;;;12.90;95.20;;;;;;5032682;28;20021;-72
2021/05/04 07:06:13;;;;;;;2.30;2.10;;;12.90;95.70;;;;;;5027859;28;20037;-73
2021/05/04 07:08:40;;;;;;;3.00;2.15;;;13.00;95.50;;;;;;5014104;28;20395;-72
2021/05/04 07:11:05;;;;;;;1.95;1.55;;;12.90;95.90;;;;;;5013158;28;20036;-73
2021/05/04 07:13:31;;;;;;;3.38;2.05;;;13.10;95.00;;;;;;5018183;28;20037;-73
2021/05/04 07:15:57;;;;;;;5.75;2.00;;;13.10;94.70;;;;;;5033655;28;20061;-73
2021/05/04 07:18:24;;;;;;;4.95;2.08;;;13.20;94.20;;;;;;5033618;28;20033;-74
2021/05/04 07:20:50;;;;;;;4.18;1.90;;;13.20;94.00;;;;;;5018666;28;20026;-75
2021/05/04 07:23:16;;;;;;;2.40;1.92;;;13.10;94.00;;;;;;5012921;28;20014;-72
2021/05/04 07:25:42;;;;;;;2.70;1.70;;;13.20;94.50;;;;;;5013437;28;20041;-72
2021/05/04 07:28:08;;;;;;;3.35;1.60;;;13.30;94.00;;;;;;5014107;28;20076;-73
2021/05/04 07:30:38;;;;;;;5.45;1.85;;;13.30;93.00;;;;;;5013751;28;20037;-75
2021/05/04 07:33:04;;;;;;;4.03;1.60;;;13.50;93.80;;;;;;5012738;28;20476;-71
2021/05/04 07:35:29;;;;;;;1.70;1.60;;;13.50;92.60;;;;;;5012742;28;20033;-71
2021/05/04 07:37:56;;;;;;;3.83;1.80;;;13.80;92.50;;;;;;5011759;28;20034;-72
2021/05/04 07:40:23;;;;;;;5.07;1.67;;;14.10;91.90;;;;;;4993791;28;20069;-71
2021/05/04 07:42:48;;;;;;;2.90;1.48;;;14.10;91.50;;;;;;5011200;28;20057;-71
2021/05/04 07:45:14;;;;;;;2.55;1.63;;;14.30;91.50;;;;;;4994211;28;20496;-72
2021/05/04 07:47:40;;;;;;;6.25;1.50;;;14.50;90.30;;;;;;5012068;28;20159;-72
2021/05/04 07:50:10;;;;;;;1.95;1.75;;;14.70;90.50;;;;;;5020850;28;20395;-75
2021/05/04 07:52:37;;;;;;;3.50;1.90;;;14.90;90.80;;;;;;5016030;28;20112;-71
2021/05/04 07:55:03;;;;;;;3.45;1.70;;;15.10;91.10;;;;;;5032527;28;20043;-72
2021/05/04 07:57:28;;;;;;;4.95;1.65;;;15.20;88.60;;;;;;5033164;28;20100;-71
2021/05/04 07:59:55;;;;;;;3.55;1.38;;;15.20;88.00;;;;;;5032269;28;20032;-72
2021/05/04 08:02:21;;;;;;;5.72;1.55;;;15.60;89.70;;;;;;5025841;28;20038;-72
2021/05/04 08:04:47;;;;;;;1.65;1.48;;;15.70;84.80;;;;;;5010986;28;20665;-71
2021/05/04 08:07:12;;;;;;;5.00;1.30;;;15.80;83.40;;;;;;5011224;28;20036;-72
2021/05/04 08:09:40;;;;;;;3.92;1.30;;;16.30;81.10;;;;;;5012813;28;20018;-74
2021/05/04 08:12:06;;;;;;;6.28;1.30;;;16.70;80.50;;;;;;5012916;28;20030;-72
2021/05/04 08:14:33;;;;;;;7.70;1.58;;;16.90;79.60;;;;;;5024470;28;20484;-74
2021/05/04 08:16:59;;;;;;;2.65;1.10;;;16.80;78.80;;;;;;5032290;28;20026;-72
2021/05/04 08:19:25;;;;;;;1.30;1.17;;;17.10;78.00;;;;;;5032735;28;20403;-73
2021/05/04 08:21:51;;;;;;;4.57;1.55;;;17.00;75.70;;;;;;5029746;28;20400;-74
2021/05/04 08:24:17;;;;;;;14.30;1.88;;;16.90;74.80;;;;;;5011821;28;20492;-73
2021/05/04 08:26:44;;;;;;;19.95;2.00;;;16.80;75.20;;;;;;5012871;28;20018;-76
2021/05/04 08:29:10;;;;;;;5.57;1.92;;;16.40;76.30;;;;;;5014363;28;20033;-76
2021/05/04 08:31:36;;;;;;;9.48;1.50;;;16.10;75.10;;;;;;5021498;28;20053;-73
2021/05/04 08:34:03;;;;;;;4.53;1.42;;;16.10;75.20;;;;;;4996315;28;20479;-75
2021/05/04 08:36:30;;;;;;;3.03;1.33;;;16.00;76.80;;;;;;5012251;28;20022;-72
2021/05/04 08:38:57;;;;;;;3.03;1.63;;;16.00;78.00;;;;;;4994721;28;20500;-72
2021/05/04 08:41:23;;;;;;;4.60;1.40;;;16.00;78.90;;;;;;4994917;28;20053;-73
2021/05/04 08:43:50;;;;;;;7.07;1.52;;;16.20;78.00;;;;;;5011883;28;20022;-72
2021/05/04 08:46:17;;;;;;;4.80;1.92;;;16.50;76.80;;;;;;5014481;28;20034;-73
2021/05/04 08:48:44;;;;;;;6.45;1.30;;;16.80;76.60;;;;;;5031412;28;20056;-73
2021/05/04 08:51:12;;;;;;;2.17;1.50;;;17.00;76.30;;;;;;5032464;28;20079;-74
2021/05/04 08:53:38;;;;;;;3.05;1.83;;;16.90;77.80;;;;;;5030214;28;20100;-73
2021/05/04 08:56:04;;;;;;;6.18;1.67;;;17.00;77.30;;;;;;5045456;23;20265;-72
2021/05/04 08:58:33;;;;;;;3.55;2.40;;;16.90;76.10;;;;;;5026896;28;20375;-70
2021/05/04 09:00:59;;;;;;;8.20;1.55;;;16.80;76.10;;;;;;5026937;28;20022;-71
2021/05/04 09:06:12;;;;;;;4.32;1.50;;;16.80;75.80;;;;;;5011380;28;20030;-70
2021/05/04 09:09:02;;;;;;;4.40;1.30;;;16.70;73.40;;;;;;5017991;28;20053;-72
2021/05/04 09:14:49;;;;;;;4.28;1.55;;;17.20;72.40;;;;;;5022026;28;20037;-72
2021/05/04 09:22:43;;;;;;;4.25;1.38;;;17.70;72.30;;;;;;5015746;28;20029;-71
2021/05/04 09:25:34;;;;;;;6.63;1.58;;;17.90;72.60;;;;;;5013289;28;20026;-72
2021/05/04 09:28:04;;;;;;;4.40;1.20;;;18.30;68.60;;;;;;5018903;28;20022;-73
2021/05/04 09:30:34;;;;;;;2.85;1.35;;;18.70;70.20;;;;;;5025069;28;20034;-71
2021/05/04 09:33:10;;;;;;;2.95;1.60;;;19.10;70.00;;;;;;5037669;28;20060;-71
2021/05/04 09:35:37;;;;;;;5.60;1.75;;;19.70;67.30;;;;;;5043411;28;20026;-71
2021/05/04 09:38:05;;;;;;;1.52;1.30;;;19.60;67.60;;;;;;5035625;28;20028;-70
2021/05/04 09:40:37;;;;;;;4.32;1.50;;;19.80;66.90;;;;;;5032107;28;20021;-71
2021/05/04 09:43:16;;;;;;;4.35;1.30;;;19.10;70.00;;;;;;5031324;28;20017;-71
2021/05/04 09:45:53;;;;;;;3.75;1.27;;;18.80;69.80;;;;;;5023601;28;20053;-73
2021/05/04 09:48:23;;;;;;;5.57;1.40;;;18.50;69.50;;;;;;5031444;28;20124;-70
2021/05/04 09:50:59;;;;;;;5.55;1.40;;;18.70;69.90;;;;;;5031736;28;20040;-70
2021/05/04 09:53:28;;;;;;;3.20;1.30;;;19.20;68.70;;;;;;5012723;28;20491;-69
2021/05/04 09:56:00;;;;;;;2.72;1.17;;;19.10;69.10;;;;;;5031301;28;20113;-70
2021/05/04 09:58:33;;;;;;;5.43;1.37;;;18.70;69.50;;;;;;5013524;28;20514;-69
2021/05/04 10:00:59;;;;;;;9.00;1.23;;;18.50;69.10;;;;;;5031111;28;20020;-69
2021/05/04 10:03:27;;;;;;;3.22;1.70;;;18.30;72.50;;;;;;5012819;28;20018;-69
2021/05/04 10:05:54;;;;;;;2.75;1.50;;;19.20;70.60;;;;;;5022971;28;20055;-70
2021/05/04 10:08:20;;;;;;;3.90;1.40;;;18.90;68.80;;;;;;5011336;28;20472;-69
2021/05/04 10:10:47;;;;;;;4.20;1.23;;;18.70;70.80;;;;;;5011507;28;20050;-69
2021/05/04 10:13:13;;;;;;;1.38;1.27;;;18.10;69.40;;;;;;5012897;28;20056;-70
2021/05/04 10:15:42;;;;;;;3.75;1.80;;;18.00;67.80;;;;;;5031713;28;20044;-71
2021/05/04 10:18:08;;;;;;;10.95;2.22;;;18.30;70.50;;;;;;5014007;28;20440;-74
2021/05/04 10:20:34;;;;;;;10.38;3.20;;;18.40;74.90;;;;;;5012986;28;20022;-73
2021/05/04 10:23:00;;;;;;;10.93;2.55;;;18.80;71.80;;;;;;5012868;28;20084;-73
2021/05/04 10:25:26;;;;;;;10.23;2.58;;;19.00;70.00;;;;;;5025747;28;20107;-75
2021/05/04 10:27:53;;;;;;;5.53;2.15;;;18.70;69.20;;;;;;5034448;28;20037;-76
2021/05/04 10:30:20;;;;;;;10.32;4.25;;;18.80;69.60;;;;;;5035667;28;20036;-73
2021/05/04 10:32:56;;;;;;;9.10;2.20;;;19.00;72.00;;;;;;5023687;28;20029;-74
2021/05/04 10:35:31;;;;;;;6.40;2.13;;;18.90;71.30;;;;;;4997963;28;20034;-73
2021/05/04 10:37:57;;;;;;;9.10;2.80;;;19.40;68.50;;;;;;5014809;28;20049;-75
2021/05/04 10:40:30;;;;;;;10.57;1.75;;;19.60;67.60;;;;;;5015146;28;20021;-74
2021/05/04 10:42:59;;;;;;;3.40;1.75;;;19.00;68.00;;;;;;5014486;28;20049;-72
2021/05/04 10:45:42;;;;;;;2.83;1.50;;;18.70;67.10;;;;;;5014383;28;20030;-70
2021/05/04 10:48:08;;;;;;;;;;;18.40;65.80;;;;;;4997457;28;20034;-71
2021/05/04 10:50:47;;;;;;;3.47;1.27;;;18.00;66.20;;;;;;5014605;28;19905;-71
2021/05/04 10:53:14;;;;;;;5.47;1.90;;;18.10;69.00;;;;;;5013797;28;20025;-71
2021/05/04 10:55:52;;;;;;;3.28;1.40;;;18.30;68.40;;;;;;5014313;28;20032;-71
2021/05/04 10:58:21;;;;;;;4.40;1.52;;;17.80;65.80;;;;;;5014384;28;20053;-71
2021/05/04 11:00:56;;;;;;;5.18;1.38;;;18.20;65.10;;;;;;5013710;28;20067;-72
2021/05/04 11:06:03;;;;;;;3.75;1.80;;;17.90;67.30;;;;;;5014382;28;20526;-72
2021/05/04 11:08:44;;;;;;;3.75;1.92;;;17.70;66.90;;;;;;5014526;28;20026;-72
2021/05/04 11:11:18;;;;;;;4.72;1.52;;;17.30;67.90;;;;;;5014220;28;20098;-71
2021/05/04 11:13:51;;;;;;;5.13;1.67;;;17.60;67.40;;;;;;5020577;28;20025;-73
2021/05/04 11:16:37;;;;;;;9.73;1.52;;;17.30;64.30;;;;;;5020574;28;20391;-71
2021/05/04 11:19:11;;;;;;;7.55;1.65;;;17.60;64.50;;;;;;5015914;28;20070;-71
2021/05/04 11:21:42;;;;;;;5.45;1.63;;;17.90;65.10;;;;;;5015337;28;20048;-72
2021/05/04 11:24:11;;;;;;;2.58;1.50;;;18.20;64.60;;;;;;5013960;28;20399;-73
2021/05/04 11:26:46;;;;;;;1.48;1.38;;;17.10;64.60;;;;;;5001658;28;20030;-72
2021/05/04 11:29:15;;;;;;;7.50;1.50;;;17.10;66.10;;;;;;5019475;28;20484;-72
2021/05/04 11:31:50;;;;;;;38.95;2.88;;;17.50;67.40;;;;;;5018917;28;20042;-71
2021/05/04 11:34:50;;;;;;;2.85;1.83;;;17.40;68.20;;;;;;5000796;28;20026;-72
2021/05/04 11:37:24;;;;;;;7.40;1.52;;;17.40;66.10;;;;;;5017558;28;20061;-71
2021/05/04 11:39:50;;;;;;;13.00;1.90;;;17.40;66.20;;;;;;4996225;28;20022;-71
2021/05/04 11:42:15;;;;;;;3.78;1.55;;;17.70;67.30;;;;;;5014041;28;20022;-71
2021/05/04 11:44:41;;;;;;;3.30;1.42;;;18.20;65.70;;;;;;5010670;28;20117;-72
2021/05/04 11:47:27;;;;;;;8.82;1.55;;;18.30;65.70;;;;;;5021161;28;20014;-70
2021/05/04 11:50:11;;;;;;;5.45;2.28;;;18.20;64.80;;;;;;5012405;28;20105;-73
2021/05/04 11:52:38;;;;;;;5.28;1.50;;;17.60;66.80;;;;;;5012213;28;20021;-72
2021/05/04 11:55:24;;;;;;;3.70;1.83;;;17.20;68.90;;;;;;5013129;28;20113;-70
2021/05/04 11:57:56;;;;;;;2.25;1.60;;;17.00;69.90;;;;;;5013159;28;20033;-70
2021/05/04 12:00:23;;;;;;;7.25;2.17;;;17.00;72.00;;;;;;4995830;28;20045;-71
2021/05/04 12:02:49;;;;;;;1.70;1.60;;;17.20;71.90;;;;;;4995233;28;20029;-71
2021/05/04 12:05:27;;;;;;;4.75;1.30;;;17.00;70.30;;;;;;5013110;28;20101;-70
2021/05/04 12:07:54;;;;;;;8.70;1.77;;;17.00;70.20;;;;;;5013068;28;20029;-71
2021/05/04 12:10:21;;;;;;;1.52;1.42;;;17.00;69.60;;;;;;5012997;28;20498;-71
2021/05/04 12:12:52;;;;;;;9.30;2.28;;;17.30;68.80;;;;;;5012437;28;20030;-71
2021/05/04 12:15:20;;;;;;;1.45;1.38;;;17.30;68.60;;;;;;5012454;28;20025;-70
2021/05/04 12:18:17;;;;;;;8.38;1.48;;;17.20;69.10;;;;;;5013035;28;20018;-71
2021/05/04 12:20:57;;;;;;;7.80;1.98;;;17.50;71.40;;;;;;5004456;28;20030;-70
2021/05/04 12:23:29;;;;;;;7.82;1.65;;;17.60;69.50;;;;;;5012402;28;20029;-70
2021/05/04 12:26:01;;;;;;;2.20;1.70;;;17.60;67.20;;;;;;5012859;28;20037;-70
2021/05/04 12:28:31;;;;;;;;;;;17.40;68.60;;;;;;5013402;28;20038;-70
2021/05/04 12:31:06;;;;;;;6.00;1.40;;;17.70;69.70;;;;;;4995300;28;19912;-72
2021/05/04 12:33:35;;;;;;;10.80;2.38;;;17.70;69.50;;;;;;5012718;28;20033;-72
2021/05/04 12:36:07;;;;;;;8.82;1.73;;;18.30;69.90;;;;;;5012519;28;20061;-70
2021/05/04 12:38:50;;;;;;;12.00;1.50;;;18.90;67.40;;;;;;5027436;28;20490;-71
2021/05/04 12:41:18;;;;;;;12.70;1.70;;;18.80;67.10;;;;;;5032736;28;20029;-71
2021/05/04 12:44:13;;;;;;;11.05;1.48;;;18.10;66.10;;;;;;5032847;28;20616;-71
2021/05/04 12:46:43;;;;;;;4.57;1.50;;;18.30;66.70;;;;;;5001579;28;20053;-70
2021/05/04 12:49:09;;;;;;;5.60;1.60;;;18.80;65.60;;;;;;4994708;28;20053;-70
2021/05/04 12:51:36;;;;;;;19.65;2.47;;;18.90;66.00;;;;;;5013630;28;20030;-70
2021/05/04 12:54:12;;;;;;;3.67;1.27;;;18.40;66.60;;;;;;5012352;28;20033;-70
2021/05/04 12:56:38;;;;;;;5.93;1.40;;;18.00;66.30;;;;;;5018916;28;20112;-70
2021/05/04 12:59:09;;;;;;;2.33;1.60;;;18.40;67.10;;;;;;5022333;28;20037;-70
2021/05/04 13:01:39;;;;;;;3.70;1.20;;;18.70;64.60;;;;;;5022803;28;20036;-70
2021/05/04 13:04:41;;;;;;;8.55;1.55;;;19.00;62.40;;;;;;5017375;28;20026;-70
2021/05/04 13:07:03;;;;;;;3.88;1.70;;;18.90;64.10;;;;;;5015052;28;20083;-71
2021/05/04 13:09:45;;;;;;;3.65;1.52;;;18.20;60.90;;;;;;5021097;28;20488;-71